sensor_id;sensor_type;location;lat;lon;timestamp;temperature;humidity
75821;DHT22;64454;51.984;9.838;2024-03-08T00:02:24;4.30;1.00
75821;DHT22;64454;51.984;9.838;2024-03-08T00:04:50;4.30;1.00
75821;DHT22;64454;51.984;9.838;2024-03-08T00:07:16;4.30;1.00
75821;DHT22;64454;51.984;9.838;2024-03-08T00:09:42;4.30;1.00
75821;DHT22;64454;51.984;9.838;2024-03-08T00:12:08;4.30;1.00
75821;DHT22;64454;51.984;9.838;2024-03-08T00:14:35;4.20;1.00
75821;DHT22;64454;51.984;9.838;2024-03-08T00:17:03;4.20;1.00
75821;DHT22;64454;51.984;9.838;2024-03-08T00:19:30;4.10;1.00
75821;DHT22;64454;51.984;9.838;2024-03-08T00:21:56;4.20;1.00
75821;DHT22;64454;51.984;9.838;2024-03-08T00:24:22;4.10;1.00
75821;DHT22;64454;51.984;9.838;2024-03-08T00:26:50;4.10;1.00
75821;DHT22;64454;51.984;9.838;2024-03-08T00:29:16;4.00;1.00
75821;DHT22;64454;51.984;9.838;2024-03-08T00:31:43;4.00;1.00
75821;DHT22;64454;51.984;9.838;2024-03-08T00:34:09;3.90;1.00
75821;DHT22;64454;51.984;9.838;2024-03-08T00:36:37;3.90;1.00
75821;DHT22;64454;51.984;9.838;2024-03-08T00:39:04;3.90;1.00
75821;DHT22;64454;51.984;9.838;2024-03-08T00:41:32;3.80;1.00
75821;DHT22;64454;51.984;9.838;2024-03-08T00:43:58;3.80;1.00
75821;DHT22;64454;51.984;9.838;2024-03-08T00:46:24;3.80;1.00
75821;DHT22;64454;51.984;9.838;2024-03-08T00:48:50;3.90;1.00
75821;DHT22;64454;51.984;9.838;2024-03-08T00:51:16;3.80;1.00
75821;DHT22;64454;51.984;9.838;2024-03-08T00:53:43;3.70;1.00
75821;DHT22;64454;51.984;9.838;2024-03-08T00:56:09;3.70;1.00
75821;DHT22;64454;51.984;9.838;2024-03-08T00:58:36;3.60;1.00
75821;DHT22;64454;51.984;9.838;2024-03-08T01:01:03;3.60;1.00
75821;DHT22;64454;51.984;9.838;2024-03-08T01:03:30;3.60;1.00
75821;DHT22;64454;51.984;9.838;2024-03-08T01:05:57;3.50;1.00
75821;DHT22;64454;51.984;9.838;2024-03-08T01:08:23;3.50;1.00
75821;DHT22;64454;51.984;9.838;2024-03-08T01:10:49;3.50;1.00
75821;DHT22;64454;51.984;9.838;2024-03-08T01:13:16;3.50;1.00
75821;DHT22;64454;51.984;9.838;2024-03-08T01:15:42;3.50;1.00
75821;DHT22;64454;51.984;9.838;2024-03-08T01:18:08;3.60;1.00
75821;DHT22;64454;51.984;9.838;2024-03-08T01:20:35;3.60;1.00
75821;DHT22;64454;51.984;9.838;2024-03-08T01:23:01;3.60;1.00
75821;DHT22;64454;51.984;9.838;2024-03-08T01:25:27;3.60;1.00
75821;DHT22;64454;51.984;9.838;2024-03-08T01:27:54;3.60;1.00
75821;DHT22;64454;51.984;9.838;2024-03-08T01:30:20;3.50;1.00
75821;DHT22;64454;51.984;9.838;2024-03-08T01:32:46;3.50;1.00
75821;DHT22;64454;51.984;9.838;2024-03-08T01:35:12;3.50;1.00
75821;DHT22;64454;51.984;9.838;2024-03-08T01:37:38;3.50;1.00
75821;DHT22;64454;51.984;9.838;2024-03-08T01:40:05;3.50;1.00
75821;DHT22;64454;51.984;9.838;2024-03-08T01:42:33;3.50;1.00
75821;DHT22;64454;51.984;9.838;2024-03-08T01:45:04;3.40;1.00
75821;DHT22;64454;51.984;9.838;2024-03-08T01:47:31;3.20;1.00
75821;DHT22;64454;51.984;9.838;2024-03-08T01:49:58;3.20;1.00
75821;DHT22;64454;51.984;9.838;2024-03-08T01:52:25;3.00;1.00
75821;DHT22;64454;51.984;9.838;2024-03-08T01:54:52;3.00;1.00
75821;DHT22;64454;51.984;9.838;2024-03-08T01:57:18;3.00;1.00
75821;DHT22;64454;51.984;9.838;2024-03-08T01:59:44;2.80;1.00
75821;DHT22;64454;51.984;9.838;2024-03-08T02:02:11;2.80;1.00
75821;DHT22;64454;51.984;9.838;2024-03-08T02:04:40;2.80;1.00
75821;DHT22;64454;51.984;9.838;2024-03-08T02:07:06;2.90;1.00
75821;DHT22;64454;51.984;9.838;2024-03-08T02:09:32;3.00;1.00
75821;DHT22;64454;51.984;9.838;2024-03-08T02:11:58;3.00;1.00
75821;DHT22;64454;51.984;9.838;2024-03-08T02:14:25;3.00;1.00
75821;DHT22;64454;51.984;9.838;2024-03-08T02:16:51;3.00;1.00
75821;DHT22;64454;51.984;9.838;2024-03-08T02:19:18;3.00;1.00
75821;DHT22;64454;51.984;9.838;2024-03-08T02:21:46;3.10;1.00
75821;DHT22;64454;51.984;9.838;2024-03-08T02:24:13;3.10;1.00
75821;DHT22;64454;51.984;9.838;2024-03-08T02:26:39;3.10;1.00
75821;DHT22;64454;51.984;9.838;2024-03-08T02:29:05;3.10;1.00
75821;DHT22;64454;51.984;9.838;2024-03-08T02:31:31;3.10;1.00
75821;DHT22;64454;51.984;9.838;2024-03-08T02:33:58;3.10;1.00
75821;DHT22;64454;51.984;9.838;2024-03-08T02:36:25;3.10;1.00
75821;DHT22;64454;51.984;9.838;2024-03-08T02:38:51;3.00;1.00
75821;DHT22;64454;51.984;9.838;2024-03-08T02:41:18;3.00;1.00
75821;DHT22;64454;51.984;9.838;2024-03-08T02:43:44;3.00;1.00
75821;DHT22;64454;51.984;9.838;2024-03-08T02:46:10;3.00;1.00
75821;DHT22;64454;51.984;9.838;2024-03-08T02:48:36;3.00;1.00
75821;DHT22;64454;51.984;9.838;2024-03-08T02:51:03;3.00;1.00
75821;DHT22;64454;51.984;9.838;2024-03-08T02:53:30;3.00;1.00
75821;DHT22;64454;51.984;9.838;2024-03-08T02:55:57;3.00;1.00
75821;DHT22;64454;51.984;9.838;2024-03-08T02:58:23;3.00;1.00
75821;DHT22;64454;51.984;9.838;2024-03-08T03:00:49;2.90;1.00
75821;DHT22;64454;51.984;9.838;2024-03-08T03:03:15;2.80;1.00
75821;DHT22;64454;51.984;9.838;2024-03-08T03:05:41;2.70;1.00
75821;DHT22;64454;51.984;9.838;2024-03-08T03:08:08;2.60;1.00
75821;DHT22;64454;51.984;9.838;2024-03-08T03:10:34;2.60;1.00
75821;DHT22;64454;51.984;9.838;2024-03-08T03:13:02;2.60;1.00
75821;DHT22;64454;51.984;9.838;2024-03-08T03:15:29;2.60;1.00
75821;DHT22;64454;51.984;9.838;2024-03-08T03:17:55;2.60;1.00
75821;DHT22;64454;51.984;9.838;2024-03-08T03:20:21;2.70;1.00
75821;DHT22;64454;51.984;9.838;2024-03-08T03:22:51;2.70;1.00
75821;DHT22;64454;51.984;9.838;2024-03-08T03:25:18;2.80;1.00
75821;DHT22;64454;51.984;9.838;2024-03-08T03:27:51;2.80;1.00
75821;DHT22;64454;51.984;9.838;2024-03-08T03:30:18;2.80;1.00
75821;DHT22;64454;51.984;9.838;2024-03-08T03:32:47;2.70;1.00
75821;DHT22;64454;51.984;9.838;2024-03-08T03:35:14;2.50;1.00
75821;DHT22;64454;51.984;9.838;2024-03-08T03:37:40;2.40;1.00
75821;DHT22;64454;51.984;9.838;2024-03-08T03:40:08;2.30;1.00
75821;DHT22;64454;51.984;9.838;2024-03-08T03:42:35;2.30;1.00
75821;DHT22;64454;51.984;9.838;2024-03-08T03:45:04;2.30;1.00
75821;DHT22;64454;51.984;9.838;2024-03-08T03:47:31;2.20;1.00
75821;DHT22;64454;51.984;9.838;2024-03-08T03:49:57;2.20;1.00
75821;DHT22;64454;51.984;9.838;2024-03-08T03:52:27;2.20;1.00
75821;DHT22;64454;51.984;9.838;2024-03-08T03:54:53;2.20;1.00
75821;DHT22;64454;51.984;9.838;2024-03-08T03:57:19;2.20;1.00
75821;DHT22;64454;51.984;9.838;2024-03-08T03:59:45;2.30;1.00
75821;DHT22;64454;51.984;9.838;2024-03-08T04:02:13;2.30;1.00
75821;DHT22;64454;51.984;9.838;2024-03-08T04:04:39;2.30;1.00
75821;DHT22;64454;51.984;9.838;2024-03-08T04:07:05;2.30;1.00
75821;DHT22;64454;51.984;9.838;2024-03-08T04:09:32;2.40;1.00
75821;DHT22;64454;51.984;9.838;2024-03-08T04:12:00;2.40;1.00
75821;DHT22;64454;51.984;9.838;2024-03-08T04:14:26;2.50;1.00
75821;DHT22;64454;51.984;9.838;2024-03-08T04:16:52;2.50;1.00
75821;DHT22;64454;51.984;9.838;2024-03-08T04:19:18;2.50;1.00
75821;DHT22;64454;51.984;9.838;2024-03-08T04:21:45;2.50;1.00
75821;DHT22;64454;51.984;9.838;2024-03-08T04:24:12;2.50;1.00
75821;DHT22;64454;51.984;9.838;2024-03-08T04:26:38;2.50;1.00
75821;DHT22;64454;51.984;9.838;2024-03-08T04:29:04;2.50;1.00
75821;DHT22;64454;51.984;9.838;2024-03-08T04:31:31;2.50;1.00
75821;DHT22;64454;51.984;9.838;2024-03-08T04:33:57;2.50;1.00
75821;DHT22;64454;51.984;9.838;2024-03-08T04:36:23;2.50;1.00
75821;DHT22;64454;51.984;9.838;2024-03-08T04:38:50;2.50;1.00
75821;DHT22;64454;51.984;9.838;2024-03-08T04:41:17;2.50;1.00
75821;DHT22;64454;51.984;9.838;2024-03-08T04:43:43;2.50;1.00
75821;DHT22;64454;51.984;9.838;2024-03-08T04:46:10;2.60;1.00
75821;DHT22;64454;51.984;9.838;2024-03-08T04:48:36;2.60;1.00
75821;DHT22;64454;51.984;9.838;2024-03-08T04:51:02;2.70;1.00
75821;DHT22;64454;51.984;9.838;2024-03-08T04:53:29;2.60;1.00
75821;DHT22;64454;51.984;9.838;2024-03-08T04:55:56;2.60;1.00
75821;DHT22;64454;51.984;9.838;2024-03-08T04:58:23;2.60;1.00
75821;DHT22;64454;51.984;9.838;2024-03-08T05:00:49;2.50;1.00
75821;DHT22;64454;51.984;9.838;2024-03-08T05:03:16;2.30;1.00
75821;DHT22;64454;51.984;9.838;2024-03-08T05:05:42;2.20;1.00
75821;DHT22;64454;51.984;9.838;2024-03-08T05:08:08;2.10;1.00
75821;DHT22;64454;51.984;9.838;2024-03-08T05:10:34;2.10;1.00
75821;DHT22;64454;51.984;9.838;2024-03-08T05:13:01;2.20;1.00
75821;DHT22;64454;51.984;9.838;2024-03-08T05:15:27;2.20;1.00
75821;DHT22;64454;51.984;9.838;2024-03-08T05:17:53;2.20;1.00
75821;DHT22;64454;51.984;9.838;2024-03-08T05:20:19;2.30;1.00
75821;DHT22;64454;51.984;9.838;2024-03-08T05:22:45;2.30;1.00
75821;DHT22;64454;51.984;9.838;2024-03-08T05:25:11;2.20;1.00
75821;DHT22;64454;51.984;9.838;2024-03-08T05:27:40;2.20;1.00
75821;DHT22;64454;51.984;9.838;2024-03-08T05:30:07;2.20;1.00
75821;DHT22;64454;51.984;9.838;2024-03-08T05:32:39;2.20;1.00
75821;DHT22;64454;51.984;9.838;2024-03-08T05:35:05;2.20;1.00
75821;DHT22;64454;51.984;9.838;2024-03-08T05:37:32;2.20;1.00
75821;DHT22;64454;51.984;9.838;2024-03-08T05:39:58;2.10;1.00
75821;DHT22;64454;51.984;9.838;2024-03-08T05:42:24;1.90;1.00
75821;DHT22;64454;51.984;9.838;2024-03-08T05:44:50;1.80;1.00
75821;DHT22;64454;51.984;9.838;2024-03-08T05:47:17;1.80;1.00
75821;DHT22;64454;51.984;9.838;2024-03-08T05:49:43;1.80;1.00
75821;DHT22;64454;51.984;9.838;2024-03-08T05:52:10;1.90;1.00
75821;DHT22;64454;51.984;9.838;2024-03-08T05:54:36;1.90;1.00
75821;DHT22;64454;51.984;9.838;2024-03-08T05:57:03;1.90;1.00
75821;DHT22;64454;51.984;9.838;2024-03-08T05:59:29;2.00;1.00
75821;DHT22;64454;51.984;9.838;2024-03-08T06:01:55;2.00;1.00
75821;DHT22;64454;51.984;9.838;2024-03-08T06:04:22;2.10;1.00
75821;DHT22;64454;51.984;9.838;2024-03-08T06:06:48;2.10;1.00
75821;DHT22;64454;51.984;9.838;2024-03-08T06:09:17;2.10;1.00
75821;DHT22;64454;51.984;9.838;2024-03-08T06:11:48;2.20;1.00
75821;DHT22;64454;51.984;9.838;2024-03-08T06:14:14;2.20;1.00
75821;DHT22;64454;51.984;9.838;2024-03-08T06:16:43;2.30;1.00
75821;DHT22;64454;51.984;9.838;2024-03-08T06:19:10;2.30;1.00
75821;DHT22;64454;51.984;9.838;2024-03-08T06:21:36;2.30;1.00
75821;DHT22;64454;51.984;9.838;2024-03-08T06:24:03;2.30;1.00
75821;DHT22;64454;51.984;9.838;2024-03-08T06:26:29;2.40;1.00
75821;DHT22;64454;51.984;9.838;2024-03-08T06:28:56;2.40;1.00
75821;DHT22;64454;51.984;9.838;2024-03-08T06:31:22;2.40;1.00
75821;DHT22;64454;51.984;9.838;2024-03-08T06:33:49;2.30;1.00
75821;DHT22;64454;51.984;9.838;2024-03-08T06:36:16;2.20;1.00
75821;DHT22;64454;51.984;9.838;2024-03-08T06:38:44;2.20;1.00
75821;DHT22;64454;51.984;9.838;2024-03-08T06:41:11;2.20;1.00
75821;DHT22;64454;51.984;9.838;2024-03-08T06:43:41;2.20;1.00
75821;DHT22;64454;51.984;9.838;2024-03-08T06:46:08;2.30;1.00
75821;DHT22;64454;51.984;9.838;2024-03-08T06:48:34;2.30;1.00
75821;DHT22;64454;51.984;9.838;2024-03-08T06:51:00;2.50;1.00
75821;DHT22;64454;51.984;9.838;2024-03-08T06:53:27;2.50;1.00
75821;DHT22;64454;51.984;9.838;2024-03-08T06:55:53;2.60;1.00
75821;DHT22;64454;51.984;9.838;2024-03-08T06:58:20;2.70;1.00
75821;DHT22;64454;51.984;9.838;2024-03-08T07:00:46;2.90;1.00
75821;DHT22;64454;51.984;9.838;2024-03-08T07:03:12;3.00;1.00
75821;DHT22;64454;51.984;9.838;2024-03-08T07:05:42;3.10;1.00
75821;DHT22;64454;51.984;9.838;2024-03-08T07:08:09;3.20;1.00
75821;DHT22;64454;51.984;9.838;2024-03-08T07:10:35;3.40;1.00
75821;DHT22;64454;51.984;9.838;2024-03-08T07:13:03;3.50;1.00
75821;DHT22;64454;51.984;9.838;2024-03-08T07:15:29;3.70;1.00
75821;DHT22;64454;51.984;9.838;2024-03-08T07:17:55;3.90;1.00
75821;DHT22;64454;51.984;9.838;2024-03-08T07:20:22;4.00;1.00
75821;DHT22;64454;51.984;9.838;2024-03-08T07:22:48;4.10;1.00
75821;DHT22;64454;51.984;9.838;2024-03-08T07:25:16;4.20;1.00
75821;DHT22;64454;51.984;9.838;2024-03-08T07:27:47;4.30;1.00
75821;DHT22;64454;51.984;9.838;2024-03-08T07:30:14;4.50;1.00
75821;DHT22;64454;51.984;9.838;2024-03-08T07:33:02;4.60;1.00
75821;DHT22;64454;51.984;9.838;2024-03-08T07:35:28;4.80;1.00
75821;DHT22;64454;51.984;9.838;2024-03-08T07:37:54;4.90;1.00
75821;DHT22;64454;51.984;9.838;2024-03-08T07:40:20;5.10;1.00
75821;DHT22;64454;51.984;9.838;2024-03-08T07:42:46;5.20;1.00
75821;DHT22;64454;51.984;9.838;2024-03-08T07:45:13;5.30;1.00
75821;DHT22;64454;51.984;9.838;2024-03-08T07:47:41;5.50;1.00
75821;DHT22;64454;51.984;9.838;2024-03-08T07:50:08;5.70;1.00
75821;DHT22;64454;51.984;9.838;2024-03-08T07:52:34;6.00;1.00
75821;DHT22;64454;51.984;9.838;2024-03-08T07:55:01;6.10;1.00
75821;DHT22;64454;51.984;9.838;2024-03-08T07:57:29;6.50;1.00
75821;DHT22;64454;51.984;9.838;2024-03-08T07:59:55;7.00;1.00
75821;DHT22;64454;51.984;9.838;2024-03-08T08:02:22;7.60;1.00
75821;DHT22;64454;51.984;9.838;2024-03-08T08:04:48;8.30;1.00
75821;DHT22;64454;51.984;9.838;2024-03-08T08:07:14;9.50;1.00
75821;DHT22;64454;51.984;9.838;2024-03-08T08:09:40;10.50;1.00
75821;DHT22;64454;51.984;9.838;2024-03-08T08:12:08;11.40;1.00
75821;DHT22;64454;51.984;9.838;2024-03-08T08:14:37;12.50;1.00
75821;DHT22;64454;51.984;9.838;2024-03-08T08:17:03;13.60;1.00
75821;DHT22;64454;51.984;9.838;2024-03-08T08:19:30;14.10;1.00
75821;DHT22;64454;51.984;9.838;2024-03-08T08:21:57;15.10;1.00
75821;DHT22;64454;51.984;9.838;2024-03-08T08:24:23;15.80;1.00
75821;DHT22;64454;51.984;9.838;2024-03-08T08:26:49;16.30;1.00
75821;DHT22;64454;51.984;9.838;2024-03-08T08:29:16;17.30;1.00
75821;DHT22;64454;51.984;9.838;2024-03-08T08:31:42;18.20;1.00
75821;DHT22;64454;51.984;9.838;2024-03-08T08:34:09;18.70;1.00
75821;DHT22;64454;51.984;9.838;2024-03-08T08:36:37;19.50;1.00
75821;DHT22;64454;51.984;9.838;2024-03-08T08:39:04;20.50;1.00
75821;DHT22;64454;51.984;9.838;2024-03-08T08:41:36;21.40;1.00
75821;DHT22;64454;51.984;9.838;2024-03-08T08:44:02;22.30;1.00
75821;DHT22;64454;51.984;9.838;2024-03-08T08:46:29;23.00;99.90
75821;DHT22;64454;51.984;9.838;2024-03-08T08:48:55;22.80;99.90
75821;DHT22;64454;51.984;9.838;2024-03-08T08:51:21;23.40;99.90
75821;DHT22;64454;51.984;9.838;2024-03-08T08:53:49;24.10;99.90
75821;DHT22;64454;51.984;9.838;2024-03-08T08:56:15;24.80;99.90
75821;DHT22;64454;51.984;9.838;2024-03-08T08:58:41;25.30;99.90
75821;DHT22;64454;51.984;9.838;2024-03-08T09:01:08;25.70;99.90
75821;DHT22;64454;51.984;9.838;2024-03-08T09:03:35;25.80;99.90
75821;DHT22;64454;51.984;9.838;2024-03-08T09:06:02;26.40;99.90
75821;DHT22;64454;51.984;9.838;2024-03-08T09:08:29;26.60;99.90
75821;DHT22;64454;51.984;9.838;2024-03-08T09:10:56;26.70;99.90
75821;DHT22;64454;51.984;9.838;2024-03-08T09:13:22;27.20;99.90
75821;DHT22;64454;51.984;9.838;2024-03-08T09:15:48;27.60;99.90
75821;DHT22;64454;51.984;9.838;2024-03-08T09:18:15;28.00;99.90
75821;DHT22;64454;51.984;9.838;2024-03-08T09:20:41;28.20;99.90
75821;DHT22;64454;51.984;9.838;2024-03-08T09:23:07;28.50;99.90
75821;DHT22;64454;51.984;9.838;2024-03-08T09:25:33;29.10;99.90
75821;DHT22;64454;51.984;9.838;2024-03-08T09:28:00;29.30;99.90
75821;DHT22;64454;51.984;9.838;2024-03-08T09:30:26;29.80;99.90
75821;DHT22;64454;51.984;9.838;2024-03-08T09:32:52;30.10;99.90
75821;DHT22;64454;51.984;9.838;2024-03-08T09:35:19;30.40;99.90
75821;DHT22;64454;51.984;9.838;2024-03-08T09:37:45;30.30;99.90
75821;DHT22;64454;51.984;9.838;2024-03-08T09:40:13;30.60;99.90
75821;DHT22;64454;51.984;9.838;2024-03-08T09:42:41;30.70;99.90
75821;DHT22;64454;51.984;9.838;2024-03-08T09:45:09;31.20;99.90
75821;DHT22;64454;51.984;9.838;2024-03-08T09:47:37;31.40;99.90
75821;DHT22;64454;51.984;9.838;2024-03-08T09:50:06;31.00;99.90
75821;DHT22;64454;51.984;9.838;2024-03-08T09:52:35;31.40;99.90
75821;DHT22;64454;51.984;9.838;2024-03-08T09:55:01;31.80;99.90
75821;DHT22;64454;51.984;9.838;2024-03-08T09:57:29;32.20;99.90
75821;DHT22;64454;51.984;9.838;2024-03-08T09:59:56;32.40;99.90
75821;DHT22;64454;51.984;9.838;2024-03-08T10:02:22;32.20;99.90
75821;DHT22;64454;51.984;9.838;2024-03-08T10:04:49;32.10;99.90
75821;DHT22;64454;51.984;9.838;2024-03-08T10:07:19;32.00;99.90
75821;DHT22;64454;51.984;9.838;2024-03-08T10:09:45;31.70;99.90
75821;DHT22;64454;51.984;9.838;2024-03-08T10:12:16;31.40;99.90
75821;DHT22;64454;51.984;9.838;2024-03-08T10:14:43;32.20;99.90
75821;DHT22;64454;51.984;9.838;2024-03-08T10:17:09;32.80;99.90
75821;DHT22;64454;51.984;9.838;2024-03-08T10:19:36;33.30;99.90
75821;DHT22;64454;51.984;9.838;2024-03-08T10:22:02;33.50;99.90
75821;DHT22;64454;51.984;9.838;2024-03-08T10:24:30;33.20;99.90
75821;DHT22;64454;51.984;9.838;2024-03-08T10:26:59;33.30;99.90
75821;DHT22;64454;51.984;9.838;2024-03-08T10:29:26;32.30;99.90
75821;DHT22;64454;51.984;9.838;2024-03-08T10:31:52;31.90;99.90
75821;DHT22;64454;51.984;9.838;2024-03-08T10:34:18;32.00;99.90
75821;DHT22;64454;51.984;9.838;2024-03-08T10:36:46;32.60;99.90
75821;DHT22;64454;51.984;9.838;2024-03-08T10:39:23;30.80;99.90
75821;DHT22;64454;51.984;9.838;2024-03-08T10:41:53;30.30;99.90
75821;DHT22;64454;51.984;9.838;2024-03-08T10:44:43;30.30;99.90
75821;DHT22;64454;51.984;9.838;2024-03-08T10:47:19;30.80;99.90
75821;DHT22;64454;51.984;9.838;2024-03-08T10:49:55;30.90;99.90
75821;DHT22;64454;51.984;9.838;2024-03-08T10:52:30;31.40;99.90
75821;DHT22;64454;51.984;9.838;2024-03-08T10:54:57;31.40;99.90
75821;DHT22;64454;51.984;9.838;2024-03-08T10:57:24;30.80;99.90
75821;DHT22;64454;51.984;9.838;2024-03-08T10:59:53;30.70;99.90
75821;DHT22;64454;51.984;9.838;2024-03-08T11:02:20;29.80;99.90
75821;DHT22;64454;51.984;9.838;2024-03-08T11:04:47;29.30;99.90
75821;DHT22;64454;51.984;9.838;2024-03-08T11:07:15;28.40;99.90
75821;DHT22;64454;51.984;9.838;2024-03-08T11:09:47;27.20;99.90
75821;DHT22;64454;51.984;9.838;2024-03-08T11:12:21;26.30;99.90
75821;DHT22;64454;51.984;9.838;2024-03-08T11:14:52;25.60;99.90
75821;DHT22;64454;51.984;9.838;2024-03-08T11:17:44;24.50;99.90
75821;DHT22;64454;51.984;9.838;2024-03-08T11:20:13;23.80;99.90
75821;DHT22;64454;51.984;9.838;2024-03-08T11:22:49;23.30;99.90
75821;DHT22;64454;51.984;9.838;2024-03-08T11:25:34;22.80;99.90
75821;DHT22;64454;51.984;9.838;2024-03-08T11:28:10;22.30;99.90
75821;DHT22;64454;51.984;9.838;2024-03-08T11:30:44;21.90;99.90
75821;DHT22;64454;51.984;9.838;2024-03-08T11:33:12;21.60;1.40
75821;DHT22;64454;51.984;9.838;2024-03-08T11:35:40;21.50;1.40
75821;DHT22;64454;51.984;9.838;2024-03-08T11:38:08;21.10;1.40
75821;DHT22;64454;51.984;9.838;2024-03-08T11:40:35;20.90;1.00
75821;DHT22;64454;51.984;9.838;2024-03-08T11:43:03;20.30;1.00
75821;DHT22;64454;51.984;9.838;2024-03-08T11:45:33;20.00;1.00
75821;DHT22;64454;51.984;9.838;2024-03-08T11:48:01;19.70;1.00
75821;DHT22;64454;51.984;9.838;2024-03-08T11:50:29;19.40;1.00
75821;DHT22;64454;51.984;9.838;2024-03-08T11:53:00;19.00;1.00
75821;DHT22;64454;51.984;9.838;2024-03-08T11:55:28;18.90;1.00
75821;DHT22;64454;51.984;9.838;2024-03-08T11:58:01;18.90;1.00
75821;DHT22;64454;51.984;9.838;2024-03-08T12:00:28;19.00;1.00
75821;DHT22;64454;51.984;9.838;2024-03-08T12:03:04;19.20;1.00
75821;DHT22;64454;51.984;9.838;2024-03-08T12:05:31;18.60;1.00
75821;DHT22;64454;51.984;9.838;2024-03-08T12:07:59;18.30;1.00
75821;DHT22;64454;51.984;9.838;2024-03-08T12:10:26;18.20;1.00
75821;DHT22;64454;51.984;9.838;2024-03-08T12:12:54;18.10;1.00
75821;DHT22;64454;51.984;9.838;2024-03-08T12:15:23;18.00;1.00
75821;DHT22;64454;51.984;9.838;2024-03-08T12:17:50;18.30;1.00
75821;DHT22;64454;51.984;9.838;2024-03-08T12:20:19;18.80;1.00
75821;DHT22;64454;51.984;9.838;2024-03-08T12:22:47;19.00;1.00
75821;DHT22;64454;51.984;9.838;2024-03-08T12:25:15;18.90;1.00
75821;DHT22;64454;51.984;9.838;2024-03-08T12:27:42;19.10;1.00
75821;DHT22;64454;51.984;9.838;2024-03-08T12:30:20;19.20;1.00
75821;DHT22;64454;51.984;9.838;2024-03-08T12:32:51;18.70;1.00
75821;DHT22;64454;51.984;9.838;2024-03-08T12:35:20;18.30;1.00
75821;DHT22;64454;51.984;9.838;2024-03-08T12:37:48;18.50;1.00
75821;DHT22;64454;51.984;9.838;2024-03-08T12:40:17;18.70;1.00
75821;DHT22;64454;51.984;9.838;2024-03-08T12:42:43;19.60;1.00
75821;DHT22;64454;51.984;9.838;2024-03-08T12:45:10;20.40;1.00
75821;DHT22;64454;51.984;9.838;2024-03-08T12:47:37;20.40;1.00
75821;DHT22;64454;51.984;9.838;2024-03-08T12:50:04;20.10;1.00
75821;DHT22;64454;51.984;9.838;2024-03-08T12:52:30;20.10;1.00
75821;DHT22;64454;51.984;9.838;2024-03-08T12:54:56;21.40;1.00
75821;DHT22;64454;51.984;9.838;2024-03-08T12:57:22;22.60;99.90
75821;DHT22;64454;51.984;9.838;2024-03-08T12:59:52;24.20;99.90
75821;DHT22;64454;51.984;9.838;2024-03-08T13:02:19;25.00;99.90
75821;DHT22;64454;51.984;9.838;2024-03-08T13:04:49;25.90;99.90
75821;DHT22;64454;51.984;9.838;2024-03-08T13:07:21;27.00;99.90
75821;DHT22;64454;51.984;9.838;2024-03-08T13:09:49;27.90;99.90
75821;DHT22;64454;51.984;9.838;2024-03-08T13:12:15;28.50;99.90
75821;DHT22;64454;51.984;9.838;2024-03-08T13:14:41;28.50;99.90
75821;DHT22;64454;51.984;9.838;2024-03-08T13:17:07;28.20;99.90
75821;DHT22;64454;51.984;9.838;2024-03-08T13:19:36;28.30;99.90
75821;DHT22;64454;51.984;9.838;2024-03-08T13:22:04;28.40;99.90
75821;DHT22;64454;51.984;9.838;2024-03-08T13:24:30;27.80;99.90
75821;DHT22;64454;51.984;9.838;2024-03-08T13:26:56;28.20;99.90
75821;DHT22;64454;51.984;9.838;2024-03-08T13:29:24;27.70;99.90
75821;DHT22;64454;51.984;9.838;2024-03-08T13:31:50;27.60;99.90
75821;DHT22;64454;51.984;9.838;2024-03-08T13:34:17;27.60;99.90
75821;DHT22;64454;51.984;9.838;2024-03-08T13:36:44;27.30;99.90
75821;DHT22;64454;51.984;9.838;2024-03-08T13:39:12;28.10;99.90
75821;DHT22;64454;51.984;9.838;2024-03-08T13:41:40;26.80;99.90
75821;DHT22;64454;51.984;9.838;2024-03-08T13:44:07;26.70;99.90
75821;DHT22;64454;51.984;9.838;2024-03-08T13:46:34;26.50;99.90
75821;DHT22;64454;51.984;9.838;2024-03-08T13:49:04;27.00;99.90
75821;DHT22;64454;51.984;9.838;2024-03-08T13:51:31;26.80;99.90
75821;DHT22;64454;51.984;9.838;2024-03-08T13:53:58;27.00;99.90
75821;DHT22;64454;51.984;9.838;2024-03-08T13:56:26;26.80;99.90
75821;DHT22;64454;51.984;9.838;2024-03-08T13:58:53;26.60;99.90
75821;DHT22;64454;51.984;9.838;2024-03-08T14:01:21;27.30;99.90
75821;DHT22;64454;51.984;9.838;2024-03-08T14:03:48;27.50;99.90
75821;DHT22;64454;51.984;9.838;2024-03-08T14:06:14;27.50;99.90
75821;DHT22;64454;51.984;9.838;2024-03-08T14:08:40;27.40;99.90
75821;DHT22;64454;51.984;9.838;2024-03-08T14:11:06;27.40;99.90
75821;DHT22;64454;51.984;9.838;2024-03-08T14:13:41;27.00;99.90
75821;DHT22;64454;51.984;9.838;2024-03-08T14:16:10;26.70;99.90
75821;DHT22;64454;51.984;9.838;2024-03-08T14:18:36;26.80;99.90
75821;DHT22;64454;51.984;9.838;2024-03-08T14:21:03;26.80;99.90
75821;DHT22;64454;51.984;9.838;2024-03-08T14:23:29;26.30;99.90
75821;DHT22;64454;51.984;9.838;2024-03-08T14:25:56;26.40;99.90
75821;DHT22;64454;51.984;9.838;2024-03-08T14:28:24;26.20;99.90
75821;DHT22;64454;51.984;9.838;2024-03-08T14:30:53;25.90;99.90
75821;DHT22;64454;51.984;9.838;2024-03-08T14:33:19;24.40;99.90
75821;DHT22;64454;51.984;9.838;2024-03-08T14:35:45;23.10;99.90
75821;DHT22;64454;51.984;9.838;2024-03-08T14:38:12;21.50;1.40
75821;DHT22;64454;51.984;9.838;2024-03-08T14:40:39;20.80;1.00
75821;DHT22;64454;51.984;9.838;2024-03-08T14:43:06;20.20;1.00
75821;DHT22;64454;51.984;9.838;2024-03-08T14:45:32;19.30;1.00
75821;DHT22;64454;51.984;9.838;2024-03-08T14:47:58;18.10;1.00
75821;DHT22;64454;51.984;9.838;2024-03-08T14:50:25;17.20;1.00
75821;DHT22;64454;51.984;9.838;2024-03-08T14:52:51;16.40;1.00
75821;DHT22;64454;51.984;9.838;2024-03-08T14:55:18;15.80;1.00
75821;DHT22;64454;51.984;9.838;2024-03-08T14:57:47;15.40;1.00
75821;DHT22;64454;51.984;9.838;2024-03-08T15:00:17;14.90;1.00
75821;DHT22;64454;51.984;9.838;2024-03-08T15:02:52;14.70;1.00
75821;DHT22;64454;51.984;9.838;2024-03-08T15:05:20;14.80;1.00
75821;DHT22;64454;51.984;9.838;2024-03-08T15:07:52;15.40;1.00
75821;DHT22;64454;51.984;9.838;2024-03-08T15:10:18;16.50;1.00
75821;DHT22;64454;51.984;9.838;2024-03-08T15:12:48;17.50;1.00
75821;DHT22;64454;51.984;9.838;2024-03-08T15:15:14;18.60;1.00
75821;DHT22;64454;51.984;9.838;2024-03-08T15:17:43;18.40;1.00
75821;DHT22;64454;51.984;9.838;2024-03-08T15:20:10;18.50;1.00
75821;DHT22;64454;51.984;9.838;2024-03-08T15:22:42;18.00;1.00
75821;DHT22;64454;51.984;9.838;2024-03-08T15:25:09;18.00;1.00
75821;DHT22;64454;51.984;9.838;2024-03-08T15:27:38;17.90;1.00
75821;DHT22;64454;51.984;9.838;2024-03-08T15:30:07;17.90;1.00
75821;DHT22;64454;51.984;9.838;2024-03-08T15:32:39;17.60;1.00
75821;DHT22;64454;51.984;9.838;2024-03-08T15:35:07;17.70;1.00
75821;DHT22;64454;51.984;9.838;2024-03-08T15:37:34;17.40;1.00
75821;DHT22;64454;51.984;9.838;2024-03-08T15:40:01;17.30;1.00
75821;DHT22;64454;51.984;9.838;2024-03-08T15:42:31;17.10;1.00
75821;DHT22;64454;51.984;9.838;2024-03-08T15:44:57;16.50;1.00
75821;DHT22;64454;51.984;9.838;2024-03-08T15:47:24;16.10;1.00
75821;DHT22;64454;51.984;9.838;2024-03-08T15:49:51;16.00;1.00
75821;DHT22;64454;51.984;9.838;2024-03-08T15:52:17;15.90;1.00